Briceville, Tennessee
Current Conditions -  °F | °C
As of 7:53 PM on Monday 24 Nov 2014 (Local Time) from KOQT Reporting Station
Clear Clear  
Wind Chill: 57°   Ceiling: Unl
Heat Index: 57°   Visibility: 10mi
Dew Point: 41°   Wind: 5mph
Humidity: 55%   Direction: NA
Pressure: 29.91"   Gusts: NA
Location:  36.18°N, 84.18°W
Report Text: KOQT 250053Z AUTO VRB04KT 10SM CLR 14/05 A2991 RMK AO2 SLP122 T01390050
Loading
Personal Weather Stations






























Interactive Weather Map New forecast layout! Learn more

10-Day Weather Forecast

Advertisements
Track Severe Weather on mobile